createdAt,value
2019-05-01T00:03:14.033Z,21.13
2019-05-01T00:08:17.267Z,21.37
2019-05-01T00:13:19.059Z,21.67
2019-05-01T00:18:23.083Z,22.23
2019-05-01T00:23:25.104Z,22.23
2019-05-01T00:28:26.909Z,22.37
2019-05-01T00:33:28.820Z,22.67
2019-05-01T00:38:30.753Z,22.27
2019-05-01T00:43:32.603Z,23.50
2019-05-01T00:48:34.499Z,24.20
2019-05-01T00:53:36.682Z,22.93
2019-05-01T00:59:01.041Z,24.73
2019-05-01T01:04:03.274Z,23.87
2019-05-01T01:09:06.196Z,25.30
2019-05-01T01:14:08.100Z,24.50
2019-05-01T01:19:14.295Z,24.17
2019-05-01T01:24:16.493Z,24.87
2019-05-01T01:29:21.474Z,24.90
2019-05-01T01:34:25.760Z,25.40
2019-05-01T01:39:27.671Z,24.33
2019-05-01T01:44:38.487Z,25.07
2019-05-01T01:49:40.374Z,24.63
2019-05-01T01:54:42.537Z,24.57
2019-05-01T01:59:44.944Z,24.47
2019-05-01T02:05:05.465Z,25.17
2019-05-01T02:10:07.930Z,25.53
2019-05-01T02:15:09.787Z,24.77
2019-05-01T02:20:12.475Z,25.43
2019-05-01T02:25:15.271Z,24.80
2019-05-01T02:30:19.008Z,21.90
2019-05-01T02:35:22.003Z,21.37
2019-05-01T02:40:48.060Z,19.20
2019-05-01T02:45:56.125Z,19.67
2019-05-01T02:51:02.269Z,20.33
2019-05-01T02:56:34.664Z,18.50
2019-05-01T03:01:46.264Z,19.03
2019-05-01T03:06:41.557Z,18.07
2019-05-01T03:11:46.049Z,19.03
2019-05-01T03:16:51.776Z,19.10
2019-05-01T03:22:03.338Z,19.63
2019-05-01T03:27:05.637Z,19.13
2019-05-01T03:32:19.041Z,19.50
2019-05-01T03:37:12.921Z,19.00
2019-05-01T03:42:15.978Z,19.97
2019-05-01T03:47:18.257Z,19.13
2019-05-01T03:52:20.863Z,19.07
2019-05-01T03:57:22.775Z,20.43
2019-05-01T04:02:45.254Z,19.00
2019-05-01T04:07:47.338Z,20.77
2019-05-01T04:12:49.321Z,19.40
2019-05-01T04:17:55.739Z,18.03
2019-05-01T04:22:57.877Z,18.00
2019-05-01T04:28:03.335Z,18.40
2019-05-01T04:33:08.650Z,17.30
2019-05-01T04:38:10.953Z,18.43
2019-05-01T04:43:12.845Z,18.80
2019-05-01T04:48:14.747Z,19.40
2019-05-01T04:53:17.697Z,19.37
2019-05-01T04:58:19.687Z,18.87
2019-05-01T05:03:23.572Z,19.23
2019-05-01T05:08:25.464Z,18.63
2019-05-01T05:13:32.391Z,19.30
2019-05-01T05:18:34.418Z,20.20
2019-05-01T05:23:36.778Z,20.70
2019-05-01T05:28:38.991Z,22.17
2019-05-01T05:33:43.606Z,21.17
2019-05-01T05:39:00.005Z,20.67
2019-05-01T05:44:07.142Z,20.00
2019-05-01T05:49:11.655Z,21.13
2019-05-01T05:54:37.019Z,20.47
2019-05-01T05:59:44.780Z,20.83
2019-05-01T06:05:16.204Z,21.80
2019-05-01T06:10:33.201Z,22.80
2019-05-01T06:16:03.330Z,20.43
2019-05-01T06:21:24.703Z,18.20
2019-05-01T06:26:32.260Z,18.57
2019-05-01T06:31:32.928Z,18.03
2019-05-01T06:36:35.070Z,19.37
2019-05-01T06:41:42.965Z,19.77
2019-05-01T06:47:08.150Z,20.57
2019-05-01T06:52:11.902Z,21.03
2019-05-01T06:57:14.101Z,21.00
2019-05-01T07:02:20.875Z,20.50
2019-05-01T07:07:25.538Z,21.13
2019-05-01T07:12:30.031Z,21.50
2019-05-01T07:17:32.632Z,20.13
2019-05-01T07:22:37.152Z,20.03
2019-05-01T07:27:40.594Z,19.63
2019-05-01T07:32:42.786Z,18.83
2019-05-01T07:37:45.015Z,19.73
2019-05-01T07:42:49.678Z,19.83
2019-05-01T07:47:52.119Z,19.93
2019-05-01T07:52:54.075Z,19.53
2019-05-01T07:57:57.194Z,19.23
2019-05-01T08:03:02.588Z,19.33
2019-05-01T08:08:07.422Z,20.27
2019-05-01T08:13:06.758Z,20.30
2019-05-01T08:18:36.188Z,19.60
2019-05-01T08:23:37.669Z,19.87
2019-05-01T08:29:03.057Z,20.83
2019-05-01T08:34:08.029Z,20.63
2019-05-01T08:39:13.920Z,20.47
2019-05-01T08:44:18.385Z,20.43
2019-05-01T08:49:52.919Z,21.20
2019-05-01T08:54:55.018Z,21.40
2019-05-01T09:00:00.275Z,20.57
2019-05-01T09:05:02.831Z,20.47
2019-05-01T09:10:08.935Z,21.47
2019-05-01T09:15:12.677Z,20.37
2019-05-01T09:20:16.673Z,22.10
2019-05-01T09:25:26.199Z,23.80
2019-05-01T09:30:34.231Z,22.50
2019-05-01T09:35:40.181Z,22.73
2019-05-01T09:40:40.177Z,24.20
2019-05-01T09:45:44.889Z,23.70
2019-05-01T09:50:52.815Z,23.37
2019-05-01T09:56:03.231Z,23.93
2019-05-01T10:01:07.339Z,23.37
2019-05-01T10:06:12.847Z,24.83
2019-05-01T10:11:14.974Z,25.77
2019-05-01T10:16:17.084Z,27.03
2019-05-01T10:21:22.403Z,27.70
2019-05-01T10:26:27.234Z,26.87
2019-05-01T10:31:47.749Z,27.70
2019-05-01T10:36:54.644Z,27.80
2019-05-01T10:41:54.527Z,28.03
2019-05-01T10:47:01.865Z,31.27
2019-05-01T10:52:13.606Z,30.83
2019-05-01T10:57:07.016Z,33.57
2019-05-01T11:02:11.097Z,31.70
2019-05-01T11:07:13.026Z,33.13
2019-05-01T11:12:14.828Z,33.70
2019-05-01T11:17:16.784Z,38.00
2019-05-01T11:22:22.685Z,37.00
2019-05-01T11:27:25.042Z,37.77
2019-05-01T11:32:35.677Z,37.27
2019-05-01T11:38:04.276Z,38.53
2019-05-01T11:43:10.060Z,37.30
2019-05-01T11:48:11.971Z,36.23
2019-05-01T11:53:16.074Z,36.27
2019-05-01T11:58:17.961Z,36.33
2019-05-01T12:03:19.880Z,35.00
2019-05-01T12:08:21.852Z,33.50
2019-05-01T12:13:24.785Z,35.10
2019-05-01T12:18:26.671Z,34.33
2019-05-01T12:23:28.539Z,33.97
2019-05-01T12:28:30.349Z,33.67
2019-05-01T12:33:37.567Z,34.80
2019-05-01T12:38:39.465Z,32.07
2019-05-01T12:43:41.469Z,31.57
2019-05-01T12:48:44.389Z,29.50
2019-05-01T12:54:03.906Z,26.53
2019-05-01T12:59:08.126Z,27.33
2019-05-01T13:04:09.995Z,24.70
2019-05-01T13:09:11.911Z,23.80
2019-05-01T13:14:13.886Z,22.13
2019-05-01T13:19:15.807Z,22.30
2019-05-01T13:24:17.919Z,22.27
2019-05-01T13:29:25.355Z,21.03
2019-05-01T13:34:27.400Z,20.30
2019-05-01T13:39:29.291Z,19.80
2019-05-01T13:44:33.820Z,21.00
2019-05-01T13:49:35.527Z,18.83
2019-05-01T13:54:37.465Z,19.40
2019-05-01T13:59:39.380Z,19.53
2019-05-01T14:04:44.231Z,18.83
2019-05-01T14:09:48.522Z,19.10
2019-05-01T14:14:50.410Z,18.40
2019-05-01T14:20:02.558Z,17.50
2019-05-01T14:25:05.809Z,17.00
2019-05-01T14:30:10.291Z,16.70
2019-05-01T14:35:12.441Z,16.60
2019-05-01T14:40:14.527Z,17.37
2019-05-01T14:45:16.419Z,16.90
2019-05-01T14:50:18.204Z,17.60
2019-05-01T14:55:20.123Z,18.10
2019-05-01T15:00:22.354Z,17.17
2019-05-01T15:05:25.811Z,17.73
2019-05-01T15:10:27.592Z,17.63
2019-05-01T15:15:49.036Z,17.93
2019-05-01T15:20:50.848Z,18.13
2019-05-01T15:25:53.086Z,18.27
2019-05-01T15:30:54.998Z,16.77
2019-05-01T15:35:57.008Z,16.93
2019-05-01T15:41:08.431Z,17.10
2019-05-01T15:46:10.418Z,17.40
2019-05-01T15:51:14.677Z,15.40
2019-05-01T15:56:16.520Z,14.80
2019-05-01T16:01:19.503Z,13.83
2019-05-01T16:06:21.523Z,14.63
2019-05-01T16:11:49.198Z,14.53
2019-05-01T16:16:51.578Z,13.87
2019-05-01T16:21:53.575Z,13.87
2019-05-01T16:26:55.307Z,14.07
2019-05-01T16:31:57.200Z,13.00
2019-05-01T16:36:59.214Z,14.10
2019-05-01T16:42:01.197Z,13.40
2019-05-01T16:47:03.210Z,13.80
2019-05-01T16:52:06.990Z,14.10
2019-05-01T16:57:11.853Z,12.77
2019-05-01T17:02:42.500Z,13.37
2019-05-01T17:07:56.290Z,12.53
2019-05-01T17:12:58.091Z,12.57
2019-05-01T17:18:00.179Z,12.40
2019-05-01T17:23:02.123Z,13.17
2019-05-01T17:28:08.231Z,13.33
2019-05-01T17:33:08.580Z,13.43
2019-05-01T17:38:10.361Z,13.00
2019-05-01T17:43:15.489Z,14.40
2019-05-01T17:48:17.594Z,13.80
2019-05-01T17:53:19.670Z,14.13
2019-05-01T17:58:21.555Z,13.67
2019-05-01T18:03:39.135Z,13.63
2019-05-01T18:08:41.032Z,13.17
2019-05-01T18:13:42.852Z,12.57
2019-05-01T18:18:44.740Z,14.07
2019-05-01T18:24:02.112Z,14.67
2019-05-01T18:29:17.577Z,13.47
2019-05-01T18:34:22.407Z,14.00
2019-05-01T18:39:43.946Z,13.00
2019-05-01T18:44:47.578Z,15.10
2019-05-01T18:49:50.176Z,14.93
2019-05-01T18:54:52.203Z,15.03
2019-05-01T18:59:54.157Z,15.60
2019-05-01T19:04:56.135Z,16.10
2019-05-01T19:10:00.067Z,16.13
2019-05-01T19:15:05.520Z,16.77
2019-05-01T19:20:06.064Z,16.60
2019-05-01T19:25:10.919Z,16.33
2019-05-01T19:30:14.910Z,16.77
2019-05-01T19:35:16.699Z,17.20
2019-05-01T19:40:18.546Z,17.37
2019-05-01T19:45:20.573Z,17.27
2019-05-01T19:50:24.673Z,17.33
2019-05-01T19:55:26.533Z,17.97
2019-05-01T20:00:53.573Z,19.47
2019-05-01T20:05:59.643Z,18.43
2019-05-01T20:10:59.405Z,18.60
2019-05-01T20:16:01.294Z,18.80
2019-05-01T20:21:04.955Z,17.00
2019-05-01T20:26:07.131Z,18.70
2019-05-01T20:31:09.081Z,18.17
2019-05-01T20:36:10.984Z,17.20
2019-05-01T20:41:15.804Z,17.47
2019-05-01T20:46:21.505Z,16.17
2019-05-01T20:51:24.391Z,16.17
2019-05-01T20:56:46.096Z,16.90
2019-05-01T21:01:48.040Z,17.07
2019-05-01T21:07:09.652Z,16.77
2019-05-01T21:12:11.506Z,17.97
2019-05-01T21:17:16.197Z,17.93
2019-05-01T21:22:18.107Z,17.87
2019-05-01T21:27:19.930Z,17.97
2019-05-01T21:32:26.149Z,17.27
2019-05-01T21:37:26.722Z,17.10
2019-05-01T21:42:28.803Z,16.83
2019-05-01T21:47:30.746Z,17.03
2019-05-01T21:52:33.254Z,17.27
2019-05-01T21:57:38.693Z,18.37
2019-05-01T22:02:41.511Z,18.90
2019-05-01T22:07:43.526Z,18.77
2019-05-01T22:12:49.006Z,18.07
2019-05-01T22:18:00.130Z,19.40
2019-05-01T22:23:06.245Z,19.23
2019-05-01T22:28:13.968Z,20.37
2019-05-01T22:33:17.982Z,20.83
2019-05-01T22:38:19.981Z,21.43
2019-05-01T22:43:22.180Z,20.80
2019-05-01T22:48:27.131Z,21.50
2019-05-01T22:53:29.072Z,21.60
2019-05-01T22:58:33.694Z,22.47
2019-05-01T23:03:42.445Z,22.13
2019-05-01T23:08:44.669Z,24.13
2019-05-01T23:13:46.588Z,21.97
2019-05-01T23:18:51.914Z,23.80
2019-05-01T23:23:56.922Z,23.50
2019-05-01T23:28:58.827Z,23.80
2019-05-01T23:34:00.890Z,23.73
2019-05-01T23:39:04.630Z,25.37
2019-05-01T23:44:06.704Z,26.87
2019-05-01T23:49:08.696Z,25.90
2019-05-01T23:54:10.655Z,26.20
2019-05-01T23:59:12.442Z,28.10
